METAR Data
IDs: Format: Raw Decoded Include TAF

Data at: 2141 UTC 10 May 2021

KGXY 102056Z 11020G26KT 10SM OVC013 05/03 A3007 RMK AO2 PK WND 11026/2053 SLP191 60001 T00500028 58003
KGXY 102028Z 12019G25KT 10SM OVC011 05/03 A3006 RMK AO2
KGXY 101956Z 11020G26KT 10SM OVC009 05/04 A3007 RMK AO2 PK WND 11026/1948 RAE56 CIG 007V013 SLP192 P0000 T00500039
KGXY 101856Z 11015G23KT 10SM -RA OVC009 04/03 A3008 RMK AO2 SLP195 P0001 T00440033
KGXY 101756Z 12017KT 10SM -RA OVC007 04/03 A3007 RMK AO2 PK WND 13026/1726 CIG 007V011 SLP195 P0000 60002 T00390028 10067 20033 50000
KGXY 101656Z 11019G24KT 10SM -RA OVC007 04/03 A3008 RMK AO2 PK WND 14027/1617 CIG 007V011 SLP194 P0001 T00390028
KGXY 101648Z 12019G24KT 10SM -RA OVC007 04/02 A3008 RMK AO2 PK WND 14027/1617 CIG 006V011 P0001
KGXY 101603Z 12018G25KT 10SM -RA OVC010 04/03 A3008 RMK AO2 CIG 007V013 P0000
KGXY 101556Z 13021G26KT 10SM -RA OVC008 04/03 A3008 RMK AO2 PK WND 14026/1550 CIG 007V013 SLP194 P0001 T00440028
KGXY 101524Z 12018G26KT 10SM -RA OVC008 05/03 A3008 RMK AO2 PK WND 13026/1519 P0000
KGXY 101456Z 13018G24KT 10SM -RA OVC013 06/03 A3007 RMK AO2 RAB07E22B55 SLP188 P0000 60000 T00560028 51003
KGXY 101416Z 13017G21KT 10SM -RA BKN017 OVC031 06/02 A3007 RMK AO2 RAB07 P0000
KGXY 101356Z 14018KT 10SM FEW017 OVC031 06/02 A3007 RMK AO2 SLP185 T00610022
KGXY 101256Z 13014KT 10SM OVC031 07/02 A3007 RMK AO2 SLP187 T00670017
KGXY 101156Z 11010KT 10SM SCT036 BKN048 OVC060 06/03 A3006 RMK AO2 SLP181 60000 T00610028 10078 20061 58005
KGXY 101056Z 11008KT 10SM FEW034 BKN075 OVC100 06/02 A3008 RMK AO2 RAE13 SLP184 P0000 T00610017
KGXY 100956Z 11008KT 10SM -RA OVC065 07/01 A3008 RMK AO2 SLP181 P0000 T00670011
KGXY 100856Z 12009KT 10SM -RA BKN045 OVC049 07/02 A3008 RMK AO2 RAB33 SLP183 P0000 60000 T00670017 58007
KGXY 100756Z 13012KT 10SM BKN060 OVC080 07/02 A3009 RMK AO2 SLP186 T00720017
KGXY 100656Z 12011KT 10SM SCT049 OVC075 07/02 A3010 RMK AO2 RAE22 SLP190 P0000 T00720017 401440050
KGXY 100556Z 11009KT 10SM -RA OVC045 08/01 A3010 RMK AO2 RAB52 SLP194 P0000 60000 T00780006 10117 20078 50003
KGXY 100456Z 13007KT 10SM BKN043 OVC049 09/02 A3011 RMK AO2 SLP195 T00890017
KGXY 100356Z 14007KT 10SM OVC047 09/02 A3011 RMK AO2 SLP195 T00890017
KGXY 100256Z 17009KT 10SM OVC044 09/01 A3009 RMK AO2 SLP192 T00940011 51015
KGXY 100156Z 16010KT 10SM OVC040 09/01 A3008 RMK AO2 SLP187 T00940006
KGXY 100056Z 17009KT 10SM OVC046 10/M01 A3006 RMK AO2 SLP185 T01001006
KGXY 092356Z 17014G19KT 10SM BKN110 12/00 A3004 RMK AO2 SLP175 T01170000 10144 20106 55001
KGXY 092256Z 17013G18KT 10SM CLR 13/01 A3004 RMK AO2 SLP170 T01280006
KGXY 092156Z 19012G19KT 10SM SCT041 13/02 A3004 RMK AO2 SLP172 T01330017
KGXY 092056Z 17013G20KT 10SM SCT039 13/02 A3005 RMK AO2 SLP171 T01330017 56012
KGXY 091956Z 13009KT 10SM BKN055 13/M01 A3006 RMK AO2 SLP174 T01281011
KGXY 091856Z VRB06KT 10SM FEW050 12/M02 A3007 RMK AO2 SLP180 T01221017
KGXY 091756Z 10007G14KT 10SM SCT044 11/M01 A3009 RMK AO2 SLP185 T01111011 10122 20050 58012
KGXY 091656Z 13010KT 10SM FEW032 10/00 A3011 RMK AO2 SLP193 T01000000
KGXY 091556Z VRB04KT 10SM BKN033 10/01 A3012 RMK AO2 SLP194 T01000006
KGXY 091533Z VRB03KT 10SM SCT029 09/00 A3012 RMK AO2
KGXY 091524Z 11005KT 10SM BKN029 09/01 A3012 RMK AO2
KGXY 091456Z 09005KT 10SM FEW029 08/00 A3013 RMK AO2 SLP201 T00780000 51009
KGXY 091356Z VRB03KT 10SM CLR 07/M01 A3012 RMK AO2 SLP201 T00671006
KGXY 091256Z 00000KT 10SM BKN075 05/00 A3011 RMK AO2 SLP197 T00500000
KGXY 091156Z 35004KT 10SM OVC070 05/01 A3009 RMK AO2 SLP184 7//// T00500006 10083 20050 53008
KGXY 091056Z 02004KT 10SM OVC065 06/01 A3008 RMK AO2 SLP172 T00560011
KGXY 090956Z 03005KT 10SM SCT050 OVC070 06/01 A3008 RMK AO2 SLP173 T00560011